Terminal Aerodrome Forecast
Issued by NWS Cleveland, OH

Home | Current Version | Previous Version | Text Only | Print | Product List | Glossary Off
Versions: 1 2 3 4 5 6 7 8 9 10 11 12 13 14 15 16 17 18 19 20

000
FTUS41 KCLE 212100 AAA
TAFERI
TAF AMD
KERI 212145Z 2122/2218 01010KT P6SM VCSH SCT005 OVC018
      TEMPO 2122/2124 3SM -SHRA BKN005 OVC018
     FM220300 01010KT P6SM OVC015
      TEMPO 2203/2207 -SHRA
     FM220900 02008KT P6SM OVC025
     FM221500 02010KT P6SM OVC035=

USA.gov is the U.S. government's official web portal to all federal, state and local government web resources and services.